Погода Миллеровна 2 недели

Ростовская область, Россия

21 мая-03 июня
  • 21мая
    Сегодня
    +10°
    +27°
    Небольшая облачность
    ВремяПогодаТемператураВлажностьДавлениеВетер, м/сВероятность осадков
    00:00Ясно и безоблачно+15°C61 %752 мм2.1 м/с2 %
    03:00Ясно и безоблачно+12°C73 %753 мм1.1 м/с2 %
    06:00Ясно и безоблачно+12°C71 %753 мм2.3 м/с2 %
    09:00Ясно и безоблачно+22°C43 %754 мм2.0 м/с2 %
    12:00Небольшая облачность+25°C31 %754 мм2.2 м/с2 %
    15:00Небольшая облачность+26°C27 %753 мм2.2 м/с2 %
    18:00Ясно и безоблачно+25°C29 %752 мм2.2 м/с2 %
    21:00Ясно и безоблачно+17°C45 %753 мм2.3 м/с2 %
  • 22мая
    Среда
    +12°
    +28°
    Ясно и безоблачно
    ВремяПогодаТемператураВлажностьДавлениеВетер, м/сВероятность осадков
    00:00Ясно и безоблачно+14°C52 %752 мм2.1 м/с2 %
    03:00Ясно и безоблачно+11°C57 %752 мм2.3 м/с2 %
    06:00Ясно и безоблачно+14°C56 %752 мм1.8 м/с2 %
    09:00Ясно и безоблачно+23°C32 %753 мм2.6 м/с2 %
    12:00Ясно и безоблачно+27°C23 %752 мм3.8 м/с2 %
    15:00Ясно и безоблачно+28°C23 %751 мм3.5 м/с2 %
    18:00Ясно и безоблачно+26°C23 %750 мм3.2 м/с2 %
    21:00Ясно и безоблачно+20°C35 %751 мм2.5 м/с2 %
  • 23мая
    Четверг
    +14°
    +28°
    Ясно и безоблачно
    ВремяПогодаТемператураВлажностьДавлениеВетер, м/сВероятность осадков
    00:00Ясно и безоблачно+16°C41 %750 мм2.4 м/с2 %
    03:00Ясно и безоблачно+13°C50 %750 мм2.2 м/с2 %
    06:00Ясно и безоблачно+14°C51 %750 мм2.6 м/с2 %
    09:00Ясно и безоблачно+24°C37 %751 мм2.2 м/с2 %
    12:00Ясно и безоблачно+27°C25 %751 мм4.2 м/с2 %
    15:00Ясно и безоблачно+28°C24 %750 мм4.0 м/с2 %
    18:00Ясно и безоблачно+26°C25 %750 мм4.1 м/с7 %
    21:00Ясно и безоблачно+21°C42 %751 мм4.9 м/с2 %
  • 24мая
    Пятница
    +10°
    +25°
    Ясно и безоблачно
    ВремяПогодаТемператураВлажностьДавлениеВетер, м/сВероятность осадков
    00:00Ясно и безоблачно+17°C55 %751 мм5.0 м/с2 %
    03:00Ясно и безоблачно+15°C68 %752 мм6.1 м/с2 %
    06:00Ясно и безоблачно+15°C60 %753 мм6.8 м/с2 %
    09:00Ясно и безоблачно+19°C40 %755 мм7.8 м/с2 %
    12:00Ясно и безоблачно+23°C35 %755 мм8.3 м/с2 %
    15:00Ясно и безоблачно+24°C30 %755 мм7.9 м/с2 %
    18:00Ясно и безоблачно+22°C24 %755 мм7.9 м/с2 %
    21:00Ясно и безоблачно+17°C24 %757 мм7.0 м/с2 %
  • 25мая
    Суббота
    +11°
    +22°
    Ясно и безоблачно
    ВремяПогодаТемператураВлажностьДавлениеВетер, м/сВероятность осадков
    00:00Ясно и безоблачно+14°C29 %757 мм6.8 м/с2 %
    03:00Ясно и безоблачно+11°C33 %758 мм6.4 м/с2 %
    06:00Ясно и безоблачно+11°C38 %758 мм6.0 м/с2 %
    09:00Ясно и безоблачно+17°C30 %759 мм7.5 м/с2 %
    12:00Ясно и безоблачно+20°C20 %758 мм7.9 м/с2 %
    15:00Ясно и безоблачно+21°C21 %758 мм8.1 м/с2 %
    18:00Облачно с прояснениями+21°C21 %757 мм7.6 м/с2 %
    21:00Облачно с прояснениями+18°C24 %757 мм5.8 м/с2 %
Мы используем cookies
Соглашаюсь